Time;durP1;ratioP1;P1;durP2;ratioP2;P2;SDS_P1;SDS_P2;PMS_P1;PMS_P2;Temp;Humidity;BMP_temperature;BMP_pressure;BME280_temperature;BME280_humidity;BME280_pressure;Samples;Min_cycle;Max_cycle;Signal;HPM_P1;HPM_P2
2022/07/23 00:00:44;;;;;;;31.30;27.60;;;16.90;99.90;;;;;;5079990;28;20467;-61
2022/07/23 00:03:11;;;;;;;30.27;26.50;;;16.90;99.90;;;;;;5080089;28;20523;-62
2022/07/23 00:05:38;;;;;;;29.77;25.87;;;16.70;99.90;;;;;;5080439;28;20458;-62
2022/07/23 00:08:06;;;;;;;31.97;26.67;;;16.70;99.90;;;;;;5079236;28;20440;-61
2022/07/23 00:10:35;;;;;;;33.83;25.00;;;16.70;99.90;;;;;;5079902;28;20473;-60
2022/07/23 00:13:08;;;;;;;28.53;25.43;;;16.80;99.90;;;;;;5080377;28;20502;-62
2022/07/23 00:15:36;;;;;;;26.43;23.70;;;16.80;99.90;;;;;;5079935;28;20457;-62
2022/07/23 00:18:05;;;;;;;29.73;26.23;;;16.70;99.90;;;;;;5079504;28;20540;-61
2022/07/23 00:20:36;;;;;;;30.77;25.37;;;16.60;99.90;;;;;;5080051;28;20468;-61
2022/07/23 00:23:03;;;;;;;31.70;27.03;;;16.60;99.90;;;;;;5079717;28;20461;-62
2022/07/23 00:25:30;;;;;;;34.27;24.87;;;16.60;99.90;;;;;;5080127;28;20497;-61
2022/07/23 00:27:59;;;;;;;31.77;26.23;;;16.60;99.90;;;;;;5077903;28;20443;-62
2022/07/23 00:30:29;;;;;;;26.03;23.30;;;16.50;99.90;;;;;;5079610;28;20446;-62
2022/07/23 00:32:58;;;;;;;29.57;24.97;;;16.40;99.90;;;;;;5079543;28;20864;-59
2022/07/23 00:35:27;;;;;;;29.40;23.80;;;16.40;99.90;;;;;;5079359;28;20428;-61
2022/07/23 00:37:54;;;;;;;32.30;24.87;;;16.50;99.90;;;;;;5079831;28;20449;-61
2022/07/23 00:40:23;;;;;;;30.97;24.90;;;16.40;99.90;;;;;;5079381;28;20457;-62
2022/07/23 00:42:51;;;;;;;30.63;24.97;;;16.40;99.90;;;;;;5079471;28;20427;-62
2022/07/23 00:45:23;;;;;;;28.43;23.37;;;16.50;99.90;;;;;;5079269;28;20463;-62
2022/07/23 00:47:53;;;;;;;27.67;23.07;;;16.50;99.90;;;;;;5078933;28;20547;-62
2022/07/23 00:50:20;;;;;;;28.40;23.90;;;16.50;99.90;;;;;;5079122;28;20515;-62
2022/07/23 00:52:52;;;;;;;30.27;23.80;;;16.40;99.90;;;;;;5078666;28;20950;-61
2022/07/23 00:55:20;;;;;;;25.27;22.63;;;16.50;99.90;;;;;;5079639;28;20461;-62
2022/07/23 00:57:48;;;;;;;31.53;25.00;;;16.50;99.90;;;;;;5078599;28;20450;-62
2022/07/23 01:00:17;;;;;;;27.47;24.20;;;16.60;99.90;;;;;;5078304;28;20904;-63
2022/07/23 01:02:49;;;;;;;28.10;23.60;;;16.50;99.90;;;;;;5078813;28;20548;-60
2022/07/23 01:05:25;;;;;;;29.17;24.97;;;16.50;99.90;;;;;;5078816;28;20444;-62
2022/07/23 01:07:53;;;;;;;28.70;24.37;;;16.40;99.90;;;;;;5078655;28;20462;-62
2022/07/23 01:10:32;;;;;;;29.13;24.63;;;16.30;99.90;;;;;;5078350;28;20764;-63
2022/07/23 01:13:02;;;;;;;33.73;24.83;;;16.20;99.90;;;;;;5078713;28;20521;-62
2022/07/23 01:15:33;;;;;;;28.50;24.77;;;16.20;99.90;;;;;;5079123;28;20469;-63
2022/07/23 01:18:03;;;;;;;26.90;22.90;;;16.20;99.90;;;;;;5078352;28;20555;-63
2022/07/23 01:20:30;;;;;;;31.37;25.53;;;16.40;99.90;;;;;;5079200;28;20440;-62
2022/07/23 01:23:01;;;;;;;29.13;24.23;;;16.50;99.90;;;;;;5078034;28;20432;-63
2022/07/23 01:25:30;;;;;;;29.53;23.83;;;16.60;99.90;;;;;;5078509;28;20444;-62
2022/07/23 01:27:57;;;;;;;30.17;23.30;;;16.60;99.90;;;;;;5078046;28;20467;-62
2022/07/23 01:30:24;;;;;;;31.03;26.07;;;16.50;99.90;;;;;;5078407;28;20479;-63
2022/07/23 01:32:52;;;;;;;29.37;23.80;;;16.50;99.90;;;;;;5077718;28;20493;-63
2022/07/23 01:35:19;;;;;;;29.63;24.90;;;16.50;99.90;;;;;;5078309;28;20436;-62
2022/07/23 01:37:48;;;;;;;34.17;26.80;;;16.60;99.90;;;;;;5077479;28;20440;-63
2022/07/23 01:40:17;;;;;;;29.20;25.27;;;16.60;99.90;;;;;;5077770;28;20461;-63
2022/07/23 01:42:46;;;;;;;35.40;28.07;;;16.40;99.90;;;;;;5078032;28;20450;-63
2022/07/23 01:45:14;;;;;;;33.37;26.30;;;16.20;99.90;;;;;;5078138;28;20435;-63
2022/07/23 01:47:44;;;;;;;32.73;27.30;;;15.90;99.90;;;;;;5077335;28;20496;-64
2022/07/23 01:50:11;;;;;;;33.40;28.50;;;15.80;99.90;;;;;;5077804;28;20462;-63
2022/07/23 01:52:38;;;;;;;30.57;26.67;;;15.90;99.90;;;;;;5077704;28;20497;-63
2022/07/23 01:55:07;;;;;;;30.30;25.77;;;15.80;99.90;;;;;;5078487;28;20461;-63
2022/07/23 01:57:35;;;;;;;29.93;26.37;;;15.90;99.90;;;;;;5077796;28;20465;-64
2022/07/23 02:00:03;;;;;;;31.00;26.80;;;16.00;99.90;;;;;;5076733;28;20432;-64
2022/07/23 02:02:30;;;;;;;33.57;25.17;;;16.10;99.90;;;;;;5077705;28;20436;-63
2022/07/23 02:04:58;;;;;;;31.97;26.67;;;16.10;99.90;;;;;;5077841;28;20736;-64
2022/07/23 02:07:25;;;;;;;32.77;26.87;;;16.30;99.90;;;;;;5077833;28;20522;-63
2022/07/23 02:09:55;;;;;;;33.67;27.10;;;16.30;99.90;;;;;;5077148;28;20443;-64
2022/07/23 02:12:25;;;;;;;29.93;25.20;;;16.20;99.90;;;;;;5077850;28;20493;-64
2022/07/23 02:14:54;;;;;;;32.63;24.97;;;16.00;99.90;;;;;;5077644;28;20783;-64
2022/07/23 02:17:21;;;;;;;32.07;28.10;;;16.00;99.90;;;;;;5077413;28;20552;-64
2022/07/23 02:19:50;;;;;;;31.60;24.53;;;15.90;99.90;;;;;;5078148;28;20488;-64
2022/07/23 02:22:17;;;;;;;31.63;26.87;;;15.90;99.90;;;;;;5076809;28;20450;-64
2022/07/23 02:24:45;;;;;;;30.63;24.50;;;15.80;99.90;;;;;;5077665;28;20436;-64
2022/07/23 02:27:14;;;;;;;28.50;23.80;;;15.80;99.90;;;;;;5077746;28;20515;-63
2022/07/23 02:29:41;;;;;;;30.00;23.87;;;15.80;99.90;;;;;;5076704;28;20527;-63
2022/07/23 02:32:10;;;;;;;31.60;23.30;;;15.80;99.90;;;;;;5076984;28;20778;-63
2022/07/23 02:34:37;;;;;;;28.40;23.63;;;15.80;99.90;;;;;;5076627;28;20452;-64
2022/07/23 02:37:04;;;;;;;30.20;24.67;;;15.80;99.90;;;;;;5077299;28;20435;-63
2022/07/23 02:39:35;;;;;;;29.77;24.60;;;15.70;99.90;;;;;;5077482;28;20436;-63
2022/07/23 02:42:02;;;;;;;29.50;25.27;;;15.60;99.90;;;;;;5076847;28;20468;-63
2022/07/23 02:44:29;;;;;;;35.97;28.97;;;15.50;99.90;;;;;;5076912;28;20469;-63
2022/07/23 02:46:57;;;;;;;30.37;24.77;;;15.50;99.90;;;;;;5077338;28;20483;-63
2022/07/23 02:49:25;;;;;;;32.80;26.00;;;15.40;99.90;;;;;;5076561;28;20826;-63
2022/07/23 02:51:54;;;;;;;32.47;25.73;;;15.40;99.90;;;;;;5076298;28;20990;-63
2022/07/23 02:54:21;;;;;;;29.50;26.10;;;15.30;99.90;;;;;;5077170;28;20436;-63
2022/07/23 02:56:50;;;;;;;35.07;25.33;;;15.30;99.90;;;;;;5077586;28;20432;-63
2022/07/23 02:59:17;;;;;;;33.33;26.23;;;15.20;99.90;;;;;;5076713;28;20436;-63
2022/07/23 03:01:45;;;;;;;30.47;25.40;;;15.20;99.90;;;;;;5076231;28;20460;-63
2022/07/23 03:04:13;;;;;;;31.20;26.03;;;15.20;99.90;;;;;;5076779;28;20859;-63
2022/07/23 03:06:41;;;;;;;28.97;25.00;;;15.20;99.90;;;;;;5076805;28;20464;-63
2022/07/23 03:09:11;;;;;;;34.33;26.60;;;15.20;99.90;;;;;;5077242;28;20459;-63
2022/07/23 03:11:39;;;;;;;29.03;24.47;;;15.10;99.90;;;;;;5076411;28;20489;-63
2022/07/23 03:14:07;;;;;;;30.03;23.77;;;15.00;99.90;;;;;;5076372;28;20440;-63
2022/07/23 03:16:34;;;;;;;32.37;24.90;;;15.00;99.90;;;;;;5076926;28;20436;-63
2022/07/23 03:19:01;;;;;;;29.03;25.60;;;15.00;99.90;;;;;;5077318;28;20439;-63
2022/07/23 03:21:29;;;;;;;29.40;25.90;;;15.00;99.90;;;;;;5077028;28;20500;-63
2022/07/23 03:24:00;;;;;;;30.30;25.53;;;15.00;99.90;;;;;;5076117;28;20440;-63
2022/07/23 03:26:27;;;;;;;27.37;24.43;;;15.00;99.90;;;;;;5076677;28;20468;-61
2022/07/23 03:28:55;;;;;;;27.33;23.43;;;14.80;99.90;;;;;;5076801;28;20479;-63
2022/07/23 03:31:22;;;;;;;29.73;24.03;;;14.70;99.90;;;;;;5076559;28;20465;-63
2022/07/23 03:33:49;;;;;;;30.97;24.43;;;14.70;99.90;;;;;;5076732;28;20745;-63
2022/07/23 03:36:23;;;;;;;32.67;23.20;;;14.70;99.90;;;;;;5076781;28;20436;-63
2022/07/23 03:38:51;;;;;;;30.70;24.80;;;14.70;99.90;;;;;;5076996;28;20428;-63
2022/07/23 03:41:21;;;;;;;25.27;22.07;;;14.70;99.90;;;;;;5076985;28;20469;-63
2022/07/23 03:43:48;;;;;;;29.47;24.93;;;14.60;99.90;;;;;;5076415;28;20720;-63
2022/07/23 03:46:15;;;;;;;29.50;23.90;;;14.50;99.90;;;;;;5079519;28;20457;-63
2022/07/23 03:48:42;;;;;;;30.40;23.63;;;14.50;99.90;;;;;;5079995;28;20436;-63
2022/07/23 03:51:10;;;;;;;27.80;22.33;;;14.40;99.90;;;;;;5080245;28;20452;-63
2022/07/23 03:53:37;;;;;;;28.90;23.87;;;14.40;99.90;;;;;;5080573;28;20459;-63
2022/07/23 03:56:05;;;;;;;27.63;23.97;;;14.50;99.90;;;;;;5080078;28;20463;-63
2022/07/23 03:58:35;;;;;;;29.20;23.40;;;14.50;99.90;;;;;;5080091;28;20559;-63
2022/07/23 04:01:05;;;;;;;30.67;25.00;;;14.50;99.90;;;;;;5079191;28;20442;-63
2022/07/23 04:03:32;;;;;;;26.43;22.73;;;14.40;99.90;;;;;;5079899;28;20436;-63
2022/07/23 04:05:59;;;;;;;27.10;22.33;;;14.50;99.90;;;;;;5079939;28;20444;-63
2022/07/23 04:08:27;;;;;;;28.43;22.83;;;14.50;99.90;;;;;;5079760;28;20471;-63
2022/07/23 04:10:54;;;;;;;27.17;22.43;;;14.50;99.90;;;;;;5079794;28;20440;-63
2022/07/23 04:13:25;;;;;;;31.37;23.03;;;14.50;99.90;;;;;;5079809;28;20870;-63
2022/07/23 04:15:58;;;;;;;30.40;24.03;;;14.50;99.90;;;;;;5079738;28;20454;-63
2022/07/23 04:18:25;;;;;;;33.30;25.03;;;14.50;99.90;;;;;;5080320;28;20468;-63
2022/07/23 04:20:53;;;;;;;27.00;23.90;;;14.60;99.90;;;;;;5079919;28;20461;-63
2022/07/23 04:23:20;;;;;;;29.20;22.97;;;14.60;99.90;;;;;;5079783;28;20439;-63
2022/07/23 04:25:47;;;;;;;33.20;24.17;;;14.60;99.90;;;;;;5079388;28;20462;-63
2022/07/23 04:28:15;;;;;;;31.67;23.60;;;14.60;99.90;;;;;;5079391;28;20834;-63
2022/07/23 04:30:42;;;;;;;34.40;25.43;;;14.70;99.90;;;;;;5079612;28;20461;-63
2022/07/23 04:33:11;;;;;;;34.10;24.37;;;14.60;99.90;;;;;;5079712;28;20566;-63
2022/07/23 04:35:40;;;;;;;30.37;24.90;;;14.70;99.90;;;;;;5079215;28;20443;-63
2022/07/23 04:38:07;;;;;;;44.33;26.70;;;14.70;99.90;;;;;;5079425;28;20879;-63
2022/07/23 04:40:34;;;;;;;28.97;24.27;;;14.80;99.90;;;;;;5078716;28;20561;-63
2022/07/23 04:43:11;;;;;;;30.70;25.83;;;14.90;99.90;;;;;;5079877;28;20764;-63
2022/07/23 04:45:38;;;;;;;31.20;23.97;;;14.90;99.90;;;;;;5078991;28;20438;-63
2022/07/23 04:48:06;;;;;;;30.50;23.70;;;14.80;99.90;;;;;;5079246;28;20458;-63
2022/07/23 04:50:35;;;;;;;31.93;24.73;;;14.80;99.90;;;;;;5079256;28;20439;-63
2022/07/23 04:53:04;;;;;;;30.70;25.33;;;14.90;99.90;;;;;;5078903;28;20505;-62
2022/07/23 04:55:31;;;;;;;27.30;23.37;;;15.00;99.90;;;;;;5079468;28;20461;-62
2022/07/23 04:57:58;;;;;;;33.27;26.00;;;15.20;99.90;;;;;;5078117;28;20951;-63
2022/07/23 05:00:25;;;;;;;29.00;23.97;;;15.30;99.90;;;;;;5078250;28;20461;-62
2022/07/23 05:02:53;;;;;;;28.63;22.50;;;15.40;99.90;;;;;;5078457;28;20465;-63
2022/07/23 05:05:20;;;;;;;28.03;22.73;;;15.30;99.90;;;;;;5079528;28;20779;-63
2022/07/23 05:07:52;;;;;;;29.93;23.00;;;15.30;99.90;;;;;;5077744;28;20492;-63
2022/07/23 05:10:22;;;;;;;31.43;25.57;;;15.40;99.90;;;;;;5078974;28;20841;-63
2022/07/23 05:12:50;;;;;;;27.50;23.33;;;15.50;99.90;;;;;;5078601;28;20489;-63
2022/07/23 05:15:21;;;;;;;26.30;22.77;;;15.60;99.90;;;;;;5078641;28;20738;-63
2022/07/23 05:17:51;;;;;;;44.57;24.43;;;15.70;99.90;;;;;;5078648;28;20526;-62
2022/07/23 05:20:18;;;;;;;33.87;25.50;;;15.90;99.90;;;;;;5078732;28;20790;-63
2022/07/23 05:22:46;;;;;;;34.13;26.97;;;15.90;99.90;;;;;;5077917;28;20790;-61
2022/07/23 05:25:14;;;;;;;29.53;26.10;;;16.10;99.90;;;;;;5078770;28;20722;-63
2022/07/23 05:27:42;;;;;;;32.00;25.00;;;16.10;99.90;;;;;;5077836;28;20446;-62
2022/07/23 05:30:13;;;;;;;26.33;23.50;;;16.10;99.90;;;;;;5077671;28;20472;-63
2022/07/23 05:32:40;;;;;;;31.40;24.17;;;16.10;99.90;;;;;;5078066;28;20761;-63
2022/07/23 05:35:11;;;;;;;24.83;22.27;;;16.10;99.90;;;;;;5078368;28;20458;-62
2022/07/23 05:37:39;;;;;;;23.93;21.43;;;16.10;99.90;;;;;;5078167;28;20436;-63
2022/07/23 05:40:09;;;;;;;21.77;19.00;;;16.10;99.90;;;;;;5077925;28;20931;-63
2022/07/23 05:42:38;;;;;;;18.60;16.80;;;16.00;99.90;;;;;;5077840;28;20829;-63
2022/07/23 05:45:07;;;;;;;19.90;17.40;;;15.80;99.90;;;;;;5078310;28;20461;-63
2022/07/23 05:47:43;;;;;;;17.63;15.93;;;15.60;99.90;;;;;;5077715;28;20432;-63
2022/07/23 05:50:11;;;;;;;21.20;18.63;;;15.40;99.90;;;;;;5077861;28;20460;-62
2022/07/23 05:52:39;;;;;;;19.37;17.47;;;15.50;99.90;;;;;;5077795;28;20482;-61
2022/07/23 05:55:11;;;;;;;18.47;16.60;;;15.50;99.90;;;;;;5078271;28;20876;-63
2022/07/23 05:57:40;;;;;;;17.90;16.10;;;15.50;99.90;;;;;;5077426;28;20461;-62
2022/07/23 06:00:12;;;;;;;19.73;17.83;;;15.40;99.90;;;;;;5076690;28;20893;-63
2022/07/23 06:02:41;;;;;;;18.27;16.37;;;15.50;99.90;;;;;;5077141;28;20472;-62
2022/07/23 06:05:09;;;;;;;17.23;15.63;;;15.50;99.90;;;;;;5077608;28;20451;-63
2022/07/23 06:07:37;;;;;;;18.00;16.20;;;15.40;99.90;;;;;;5076929;28;20440;-62
2022/07/23 06:10:06;;;;;;;21.97;17.63;;;15.40;99.90;;;;;;5076481;28;20465;-63
2022/07/23 06:12:33;;;;;;;20.47;18.27;;;15.60;99.90;;;;;;5077176;28;20532;-63
2022/07/23 06:15:02;;;;;;;21.00;19.00;;;16.10;99.90;;;;;;5078155;28;20857;-63
2022/07/23 06:17:29;;;;;;;21.77;19.67;;;16.30;99.90;;;;;;5077454;28;20436;-62
2022/07/23 06:19:57;;;;;;;21.67;19.07;;;16.50;99.90;;;;;;5075676;28;20495;-63
2022/07/23 06:22:24;;;;;;;21.40;19.30;;;16.30;99.90;;;;;;5076209;28;20488;-63
2022/07/23 06:24:52;;;;;;;21.17;18.97;;;16.40;99.90;;;;;;5076315;28;20571;-63
2022/07/23 06:27:20;;;;;;;21.47;18.43;;;16.60;99.90;;;;;;5076649;28;20724;-63
2022/07/23 06:29:47;;;;;;;21.30;19.30;;;16.10;99.90;;;;;;5077071;28;20809;-62
2022/07/23 06:32:16;;;;;;;20.40;18.40;;;15.70;99.90;;;;;;5076618;28;20458;-63
2022/07/23 06:34:43;;;;;;;20.00;18.10;;;15.90;99.90;;;;;;5077301;28;20858;-62
2022/07/23 06:37:10;;;;;;;19.83;17.93;;;16.10;99.90;;;;;;5077185;28;20475;-61
2022/07/23 06:39:38;;;;;;;20.90;18.80;;;16.30;99.90;;;;;;5077451;28;20537;-63
2022/07/23 06:42:05;;;;;;;20.40;18.40;;;16.40;99.90;;;;;;5076843;28;20471;-63
2022/07/23 06:44:33;;;;;;;18.13;16.53;;;16.60;99.90;;;;;;5077464;28;20428;-62
2022/07/23 06:47:00;;;;;;;16.60;14.97;;;16.80;99.90;;;;;;5077042;28;20469;-63
2022/07/23 06:49:29;;;;;;;17.70;15.93;;;17.00;99.90;;;;;;5076742;28;20539;-63
2022/07/23 06:51:58;;;;;;;17.00;15.47;;;17.20;99.90;;;;;;5078458;28;20488;-63
2022/07/23 06:54:25;;;;;;;17.90;16.40;;;17.50;99.90;;;;;;5077834;28;20977;-62
2022/07/23 06:56:52;;;;;;;16.83;15.23;;;18.00;99.90;;;;;;5059769;28;20751;-63
2022/07/23 06:59:19;;;;;;;16.37;13.40;;;18.50;99.90;;;;;;5077849;28;20461;-63
2022/07/23 07:01:49;;;;;;;15.23;13.73;;;18.70;99.90;;;;;;5077208;28;20461;-63
2022/07/23 07:04:17;;;;;;;16.70;15.10;;;19.10;99.90;;;;;;5078482;28;20440;-63
2022/07/23 07:06:48;;;;;;;16.10;14.50;;;19.20;99.90;;;;;;5076340;28;20444;-63
2022/07/23 07:09:15;;;;;;;17.83;16.10;;;19.60;1.00;;;;;;5077385;28;20787;-63
2022/07/23 07:11:48;;;;;;;15.40;13.93;;;19.50;99.90;;;;;;5076839;28;20527;-63
2022/07/23 07:14:16;;;;;;;16.83;15.20;;;19.60;99.90;;;;;;5078291;28;20474;-64
2022/07/23 07:16:43;;;;;;;19.20;16.73;;;20.10;99.90;;;;;;5077604;28;20536;-64
2022/07/23 07:19:10;;;;;;;17.23;15.53;;;20.50;1.00;;;;;;5077479;28;20446;-64
2022/07/23 07:21:37;;;;;;;17.33;15.53;;;20.70;1.00;;;;;;5081842;28;20485;-64
2022/07/23 07:24:09;;;;;;;17.40;15.67;;;20.50;1.00;;;;;;5081509;28;20457;-64
2022/07/23 07:26:38;;;;;;;18.17;16.47;;;20.30;1.00;;;;;;5082322;28;20461;-64
2022/07/23 07:29:10;;;;;;;19.10;17.23;;;19.90;1.00;;;;;;5081506;28;20470;-64
2022/07/23 07:31:39;;;;;;;19.20;17.30;;;19.40;1.00;;;;;;5081349;28;20440;-64
2022/07/23 07:34:11;;;;;;;20.50;18.43;;;19.30;1.00;;;;;;5081083;28;20493;-65
2022/07/23 07:36:43;;;;;;;20.70;18.70;;;19.00;1.00;;;;;;5080930;28;20465;-65
2022/07/23 07:39:12;;;;;;;22.33;20.13;;;19.10;1.00;;;;;;5081010;28;20464;-66
2022/07/23 07:41:43;;;;;;;23.73;21.33;;;19.00;1.00;;;;;;5079636;28;20849;-66
2022/07/23 07:44:10;;;;;;;22.27;19.97;;;20.10;91.70;;;;;;5078271;28;20461;-66
2022/07/23 07:46:43;;;;;;;23.57;21.07;;;20.40;1.00;;;;;;5079979;28;20468;-66
2022/07/23 07:49:10;;;;;;;21.00;19.00;;;20.50;1.00;;;;;;5078763;28;20542;-66
2022/07/23 07:51:37;;;;;;;21.87;19.80;;;19.90;1.00;;;;;;5079186;28;20929;-68
2022/07/23 07:54:05;;;;;;;22.60;20.40;;;19.10;1.00;;;;;;5080184;28;20493;-68
2022/07/23 07:56:35;;;;;;;26.20;23.73;;;18.70;1.00;;;;;;5080271;28;20531;-67
2022/07/23 07:59:02;;;;;;;25.20;22.73;;;18.50;1.00;;;;;;5079979;28;20439;-68
2022/07/23 08:01:32;;;;;;;26.47;23.90;;;18.30;99.90;;;;;;5079685;28;20900;-68
2022/07/23 08:04:00;;;;;;;23.13;20.57;;;18.90;99.90;;;;;;5079175;28;20552;-68
2022/07/23 08:06:27;;;;;;;24.00;21.60;;;19.70;1.00;;;;;;5078923;28;20705;-69
2022/07/23 08:08:55;;;;;;;20.07;17.97;;;20.90;41.80;;;;;;5078524;28;20564;-68
2022/07/23 08:11:27;;;;;;;19.60;17.80;;;21.20;1.00;;;;;;5079558;28;20439;-67
2022/07/23 08:13:57;;;;;;;22.17;20.17;;;20.50;99.90;;;;;;5076899;28;20750;-67
2022/07/23 08:16:24;;;;;;;20.20;18.40;;;19.30;1.00;;;;;;5078734;28;20465;-68
2022/07/23 08:18:51;;;;;;;22.10;19.90;;;19.40;1.00;;;;;;5077970;28;20622;-68
2022/07/23 08:21:19;;;;;;;21.07;19.27;;;19.90;1.00;;;;;;5077940;28;20634;-68
2022/07/23 08:23:47;;;;;;;20.63;18.73;;;20.40;1.00;;;;;;5079425;28;20783;-68
2022/07/23 08:26:16;;;;;;;23.00;20.90;;;21.50;1.00;;;;;;5079288;28;20472;-68
2022/07/23 08:28:45;;;;;;;21.37;19.37;;;22.00;99.90;;;;;;5077466;28;20509;-68
2022/07/23 08:31:17;;;;;;;21.87;20.03;;;22.50;99.90;;;;;;5076112;28;20918;-66
2022/07/23 08:33:47;;;;;;;19.70;17.93;;;22.50;99.90;;;;;;5078552;28;20493;-65
2022/07/23 08:36:17;;;;;;;18.90;17.10;;;22.30;99.90;;;;;;5079064;28;20489;-65
2022/07/23 08:38:44;;;;;;;21.17;19.37;;;21.40;99.90;;;;;;5079135;28;20867;-65
2022/07/23 08:41:12;;;;;;;19.47;17.67;;;20.50;99.90;;;;;;5078439;28;20742;-65
2022/07/23 08:43:40;;;;;;;19.87;18.17;;;20.40;99.90;;;;;;5077467;28;20470;-65
2022/07/23 08:46:07;;;;;;;21.03;18.90;;;20.40;99.90;;;;;;5077660;28;20428;-65
2022/07/23 08:48:37;;;;;;;21.73;19.70;;;20.90;1.00;;;;;;5077804;28;20887;-66
2022/07/23 08:51:13;;;;;;;22.73;20.73;;;21.20;99.90;;;;;;5078156;28;20814;-65
2022/07/23 08:53:42;;;;;;;24.83;22.53;;;20.50;99.90;;;;;;5076350;28;20489;-64
2022/07/23 08:56:10;;;;;;;22.83;21.00;;;19.90;99.90;;;;;;5077392;28;20460;-67
2022/07/23 08:58:37;;;;;;;21.80;20.10;;;19.70;99.90;;;;;;5077559;28;20457;-67
2022/07/23 09:01:05;;;;;;;22.90;20.77;;;20.30;99.90;;;;;;5076837;28;20521;-68
2022/07/23 09:03:39;;;;;;;22.80;21.00;;;20.80;99.90;;;;;;5075302;28;20936;-67
2022/07/23 09:06:09;;;;;;;23.77;21.87;;;21.80;99.90;;;;;;5077204;28;20872;-67
2022/07/23 09:08:40;;;;;;;21.00;19.33;;;22.00;99.90;;;;;;5077455;28;20482;-67
2022/07/23 09:11:09;;;;;;;22.40;20.30;;;22.90;99.90;;;;;;5077531;28;20461;-67
2022/07/23 09:13:41;;;;;;;24.63;22.60;;;22.60;99.90;;;;;;5077318;28;20468;-68
2022/07/23 09:16:12;;;;;;;22.90;21.00;;;23.50;99.90;;;;;;5077248;28;20464;-66
2022/07/23 09:18:44;;;;;;;21.30;19.60;;;24.50;99.90;;;;;;5076609;28;20777;-67
2022/07/23 09:21:20;;;;;;;22.97;21.07;;;23.80;99.90;;;;;;5074773;28;20871;-67
2022/07/23 09:23:52;;;;;;;21.13;19.53;;;24.40;99.90;;;;;;5076995;28;20729;-66
2022/07/23 09:26:33;;;;;;;20.00;18.40;;;23.50;99.90;;;;;;5076255;28;20431;-66
2022/07/23 09:29:09;;;;;;;22.20;20.60;;;23.70;99.90;;;;;;5075083;28;20471;-65
2022/07/23 09:31:50;;;;;;;21.33;19.83;;;23.40;99.90;;;;;;5075190;28;20559;-65
2022/07/23 09:34:25;;;;;;;20.53;18.97;;;24.50;99.90;;;;;;5071461;28;20559;-65
2022/07/23 09:36:53;;;;;;;19.57;18.07;;;24.50;99.90;;;;;;5074653;28;20453;-65
2022/07/23 09:39:34;;;;;;;21.00;19.40;;;24.20;99.90;;;;;;5073738;28;20519;-64
2022/07/23 09:42:18;;;;;;;23.00;21.07;;;24.80;99.90;;;;;;5073383;28;20508;-65
2022/07/23 09:44:46;;;;;;;20.30;18.70;;;25.50;99.90;;;;;;5074017;28;20480;-65
2022/07/23 09:50:08;;;;;;;19.43;17.77;;;26.60;99.90;;;;;;5077111;28;20447;-66
2022/07/23 09:52:37;;;;;;;18.33;16.93;;;26.10;99.90;;;;;;5076672;28;20492;-66
2022/07/23 09:55:07;;;;;;;19.20;17.80;;;26.20;99.90;;;;;;5078153;28;20926;-66
2022/07/23 09:57:39;;;;;;;18.53;17.20;;;26.20;99.90;;;;;;5078099;28;20432;-65
2022/07/23 10:00:14;;;;;;;19.00;17.70;;;25.40;99.90;;;;;;5077403;28;20465;-66
2022/07/23 10:02:41;;;;;;;16.87;15.47;;;24.40;99.90;;;;;;5077318;28;20830;-65
2022/07/23 10:05:16;;;;;;;17.90;16.43;;;24.90;99.90;;;;;;5077070;28;20457;-66
2022/07/23 10:07:46;;;;;;;18.13;16.57;;;26.00;99.90;;;;;;5073667;28;20455;-65
2022/07/23 10:10:15;;;;;;;15.90;14.80;;;26.70;99.90;;;;;;5076120;28;20464;-65
2022/07/23 10:15:32;;;;;;;16.87;15.60;;;27.40;99.90;;;;;;5066805;28;20452;-65
2022/07/23 10:17:59;;;;;;;17.60;16.50;;;27.40;99.90;;;;;;5076511;28;20898;-65
2022/07/23 10:20:30;;;;;;;16.90;15.70;;;26.00;99.90;;;;;;5077868;28;20466;-65
2022/07/23 10:23:11;;;;;;;15.90;14.70;;;25.60;99.90;;;;;;5076841;28;20530;-65
2022/07/23 10:25:42;;;;;;;12.60;11.80;;;24.90;99.90;;;;;;5075473;28;20864;-64
2022/07/23 10:28:26;;;;;;;15.20;14.03;;;24.90;99.90;;;;;;5077574;28;20472;-64
2022/07/23 10:31:07;;;;;;;14.20;13.10;;;25.40;99.90;;;;;;5077452;28;20556;-64
2022/07/23 10:33:47;;;;;;;16.27;15.10;;;25.70;99.90;;;;;;5077497;28;20463;-66
2022/07/23 10:36:21;;;;;;;16.30;15.07;;;25.80;99.90;;;;;;5077699;28;20461;-65
2022/07/23 10:38:54;;;;;;;16.90;15.60;;;25.30;99.90;;;;;;5077296;28;20479;-65
2022/07/23 10:41:35;;;;;;;12.57;11.43;;;26.10;99.90;;;;;;5077519;28;20504;-65
2022/07/23 10:44:12;;;;;;;14.63;13.50;;;25.70;99.90;;;;;;5077210;28;20457;-64
2022/07/23 10:47:05;;;;;;;13.83;12.90;;;25.10;99.90;;;;;;5075595;28;20448;-64
2022/07/23 10:49:39;;;;;;;12.07;11.27;;;26.20;99.90;;;;;;5077438;28;20492;-65
2022/07/23 10:52:27;;;;;;;11.83;11.03;;;25.90;99.90;;;;;;5076778;28;21031;-65
2022/07/23 10:54:57;;;;;;;13.30;12.30;;;26.10;99.90;;;;;;5074347;28;20532;-63
2022/07/23 10:57:26;;;;;;;14.67;13.37;;;25.60;99.90;;;;;;5073158;28;20468;-65
2022/07/23 11:00:23;;;;;;;10.73;10.03;;;26.00;99.90;;;;;;5075893;28;20458;-65
2022/07/23 11:02:52;;;;;;;13.63;12.60;;;27.00;99.90;;;;;;5038519;28;20739;-64
2022/07/23 11:05:21;;;;;;;14.13;13.13;;;26.60;99.90;;;;;;5075827;28;20875;-62
2022/07/23 11:08:22;;;;;;;13.63;12.67;;;26.80;99.90;;;;;;5074283;28;20548;-62
2022/07/23 11:10:54;;;;;;;13.40;12.50;;;26.00;99.90;;;;;;5073509;28;20467;-62
2022/07/23 11:13:33;;;;;;;13.10;12.23;;;26.40;99.90;;;;;;5075672;28;20453;-62
2022/07/23 11:16:13;;;;;;;13.07;12.17;;;26.40;99.90;;;;;;5075531;28;20464;-63
2022/07/23 11:19:01;;;;;;;12.43;11.57;;;27.00;99.90;;;;;;5075281;28;20762;-62
2022/07/23 11:21:45;;;;;;;12.90;12.00;;;26.40;99.90;;;;;;5073694;28;20454;-61
2022/07/23 11:24:19;;;;;;;13.90;12.90;;;26.50;99.90;;;;;;5074515;28;20457;-62
2022/07/23 11:26:52;;;;;;;12.43;11.53;;;27.20;99.90;;;;;;5073396;28;20522;-62
2022/07/23 11:29:45;;;;;;;10.10;9.40;;;28.00;99.90;;;;;;5075746;28;20449;-62
2022/07/23 11:32:30;;;;;;;10.60;9.50;;;28.80;99.90;;;;;;5074410;28;20457;-62
2022/07/23 11:34:58;;;;;;;14.63;8.70;;;28.60;99.90;;;;;;5075677;28;20467;-62
2022/07/23 11:37:32;;;;;;;10.63;9.83;;;27.80;99.90;;;;;;5075304;28;20452;-62
2022/07/23 11:40:11;;;;;;;12.37;11.37;;;28.30;99.90;;;;;;5075724;28;21084;-62
2022/07/23 11:42:53;;;;;;;10.10;9.30;;;27.50;99.90;;;;;;5074525;28;20468;-61
2022/07/23 11:45:40;;;;;;;11.43;10.60;;;27.70;99.90;;;;;;5075384;28;20461;-62
2022/07/23 11:48:10;;;;;;;12.13;11.10;;;27.70;99.90;;;;;;5076028;28;20481;-61
2022/07/23 11:50:38;;;;;;;10.20;9.40;;;27.90;99.90;;;;;;5075635;28;20964;-61
2022/07/23 11:53:07;;;;;;;8.93;8.17;;;28.80;99.90;;;;;;5075582;28;20449;-61
2022/07/23 11:55:35;;;;;;;9.00;7.83;;;29.70;99.90;;;;;;5075286;28;20493;-61
2022/07/23 11:58:04;;;;;;;9.07;8.27;;;28.10;99.90;;;;;;5075641;28;20460;-60
2022/07/23 12:00:32;;;;;;;9.50;8.80;;;27.60;99.90;;;;;;5075242;28;20446;-60
2022/07/23 12:03:02;;;;;;;9.50;8.80;;;26.60;99.90;;;;;;5074140;28;20913;-60
2022/07/23 12:05:33;;;;;;;9.57;8.77;;;27.10;99.90;;;;;;5075185;28;20460;-61
2022/07/23 12:08:01;;;;;;;9.30;8.40;;;27.90;99.90;;;;;;5079267;28;20532;-61
2022/07/23 12:10:31;;;;;;;7.77;6.10;;;28.30;99.90;;;;;;5077653;28;20428;-61
2022/07/23 12:13:01;;;;;;;5.40;4.90;;;27.40;99.90;;;;;;5078484;28;20463;-61
2022/07/23 12:15:32;;;;;;;5.70;5.30;;;26.90;99.90;;;;;;5078542;28;20809;-61
2022/07/23 12:18:00;;;;;;;6.23;5.70;;;26.80;99.90;;;;;;5079048;28;20503;-61
2022/07/23 12:20:30;;;;;;;5.17;4.77;;;27.20;99.90;;;;;;5078689;28;20453;-60
2022/07/23 12:23:00;;;;;;;5.37;4.97;;;27.20;99.90;;;;;;5078281;28;20435;-61
2022/07/23 12:25:28;;;;;;;5.23;4.83;;;28.00;99.90;;;;;;5076285;28;20457;-60
2022/07/23 12:28:10;;;;;;;4.30;4.00;;;29.10;99.90;;;;;;5078280;28;20459;-61
2022/07/23 12:30:43;;;;;;;4.80;4.40;;;29.30;99.90;;;;;;5076219;28;20557;-60
2022/07/23 12:33:14;;;;;;;5.43;5.03;;;29.50;99.90;;;;;;5078050;28;20485;-60
2022/07/23 12:35:43;;;;;;;5.20;4.80;;;28.30;99.90;;;;;;5074464;28;20493;-60
2022/07/23 12:38:12;;;;;;;4.30;3.90;;;28.60;99.90;;;;;;5075718;28;20469;-60
2022/07/23 12:40:46;;;;;;;4.27;3.97;;;27.70;99.90;;;;;;5077658;28;20468;-60
2022/07/23 12:43:22;;;;;;;4.23;3.93;;;28.50;99.90;;;;;;5078256;28;20467;-60
2022/07/23 12:45:51;;;;;;;4.13;3.83;;;28.90;99.90;;;;;;5076062;28;20539;-60
2022/07/23 12:48:25;;;;;;;4.27;3.97;;;28.50;99.90;;;;;;5078165;28;20461;-60
2022/07/23 12:51:15;;;;;;;3.93;3.53;;;28.50;99.90;;;;;;5076840;28;20461;-61